createdAt,value
2018-02-15T00:00:54.962Z,0.89
2018-02-15T00:01:54.967Z,0.9
2018-02-15T00:02:54.977Z,0.88
2018-02-15T00:03:54.986Z,0.88
2018-02-15T00:04:55.014Z,0.87
2018-02-15T00:05:54.971Z,0.87
2018-02-15T00:06:54.982Z,0.87
2018-02-15T00:07:54.963Z,0.88
2018-02-15T00:08:55.017Z,0.84
2018-02-15T00:09:55.012Z,0.88
2018-02-15T00:10:54.971Z,0.87
2018-02-15T00:11:55.016Z,0.84
2018-02-15T00:12:54.985Z,0.83
2018-02-15T00:13:54.985Z,0.8
2018-02-15T00:14:54.976Z,0.79
2018-02-15T00:15:54.995Z,0.82
2018-02-15T00:16:54.989Z,0.8
2018-02-15T00:17:54.993Z,0.8
2018-02-15T00:18:55.002Z,0.81
2018-02-15T00:19:55.368Z,0.83
2018-02-15T00:20:55.016Z,0.85
2018-02-15T00:21:55.013Z,0.82
2018-02-15T00:22:55.005Z,0.83
2018-02-15T00:23:55.014Z,0.84
2018-02-15T00:24:55.188Z,0.87
2018-02-15T00:25:55.126Z,0.85
2018-02-15T00:26:55.073Z,0.83
2018-02-15T00:27:55.028Z,0.83
2018-02-15T00:28:55.037Z,0.83
2018-02-15T00:29:55.081Z,0.85
2018-02-15T00:30:55.060Z,0.84
2018-02-15T00:31:55.050Z,0.83
2018-02-15T00:32:55.035Z,0.82
2018-02-15T00:33:55.061Z,0.82
2018-02-15T00:34:55.086Z,0.82
2018-02-15T00:35:55.072Z,0.82
2018-02-15T00:36:55.075Z,0.8
2018-02-15T00:37:55.049Z,0.81
2018-02-15T00:38:55.084Z,0.79
2018-02-15T00:39:55.068Z,0.81
2018-02-15T00:40:55.088Z,0.79
2018-02-15T00:41:55.081Z,0.8
2018-02-15T00:42:55.069Z,0.78
2018-02-15T00:43:55.095Z,0.78
2018-02-15T00:44:55.105Z,0.8
2018-02-15T00:45:55.085Z,0.81
2018-02-15T00:46:55.088Z,0.81
2018-02-15T00:47:55.105Z,0.84
2018-02-15T00:48:55.102Z,0.86
2018-02-15T00:49:55.132Z,0.87
2018-02-15T00:50:55.117Z,0.88
2018-02-15T00:51:55.176Z,0.89
2018-02-15T00:52:55.105Z,0.9
2018-02-15T00:53:55.131Z,0.88
2018-02-15T00:54:55.137Z,0.88
2018-02-15T00:55:55.145Z,0.88
2018-02-15T00:56:55.156Z,0.88
2018-02-15T00:57:55.158Z,0.9
2018-02-15T00:58:55.152Z,0.89
2018-02-15T00:59:55.146Z,0.92
2018-02-15T01:00:55.148Z,0.92
2018-02-15T01:01:55.148Z,0.94
2018-02-15T01:02:55.199Z,0.95
2018-02-15T01:03:55.271Z,0.98
2018-02-15T01:05:00.305Z,0.97
2018-02-15T01:05:55.188Z,0.99
2018-02-15T01:06:55.154Z,1.01
2018-02-15T01:07:55.163Z,1.01
2018-02-15T01:08:55.157Z,1
2018-02-15T01:09:55.181Z,1.01
2018-02-15T01:10:55.175Z,1.02
2018-02-15T01:11:55.174Z,1.04
2018-02-15T01:12:55.180Z,1.01
2018-02-15T01:13:55.186Z,1.03
2018-02-15T01:14:55.419Z,1.01
2018-02-15T01:15:55.238Z,0.99
2018-02-15T01:16:55.183Z,1
2018-02-15T01:17:55.194Z,1.01
2018-02-15T01:18:55.204Z,0.99
2018-02-15T01:19:55.258Z,1
2018-02-15T01:20:55.220Z,0.97
2018-02-15T01:21:55.217Z,0.95
2018-02-15T01:22:55.217Z,0.95
2018-02-15T01:23:55.239Z,0.96
2018-02-15T01:24:55.238Z,0.91
2018-02-15T01:25:55.506Z,0.95
2018-02-15T01:26:55.235Z,0.96
2018-02-15T01:27:55.236Z,0.94
2018-02-15T01:28:55.248Z,0.96
2018-02-15T01:29:55.264Z,0.95
2018-02-15T01:30:55.270Z,0.97
2018-02-15T01:31:55.303Z,0.97
2018-02-15T01:32:55.277Z,0.97
2018-02-15T01:33:55.252Z,0.98
2018-02-15T01:34:55.255Z,0.98
2018-02-15T01:35:55.264Z,0.97
2018-02-15T01:36:55.486Z,1.01
2018-02-15T01:37:55.303Z,1.01
2018-02-15T01:38:55.267Z,1
2018-02-15T01:39:55.263Z,0.99
2018-02-15T01:40:55.278Z,0.98
2018-02-15T01:41:55.312Z,0.98
2018-02-15T01:42:55.296Z,1
2018-02-15T01:43:55.282Z,0.98
2018-02-15T01:44:55.282Z,1
2018-02-15T01:45:55.303Z,0.97
2018-02-15T01:46:55.275Z,0.99
2018-02-15T01:47:55.927Z,0.97
2018-02-15T01:48:55.296Z,0.98
2018-02-15T01:49:55.305Z,1.03
2018-02-15T01:50:55.272Z,1.03
2018-02-15T01:51:55.290Z,1.07
2018-02-15T01:52:55.298Z,1.04
2018-02-15T01:53:55.331Z,1.06
2018-02-15T01:54:55.312Z,1.04
2018-02-15T01:55:55.317Z,1.04
2018-02-15T01:56:55.297Z,1.02
2018-02-15T01:57:55.334Z,1.02
2018-02-15T01:58:55.339Z,1.06
2018-02-15T01:59:55.322Z,1.06
2018-02-15T02:00:55.327Z,1.05
2018-02-15T02:01:55.340Z,1.05
2018-02-15T02:02:55.338Z,1.08
2018-02-15T02:03:55.350Z,1.05
2018-02-15T02:04:55.350Z,1.06
2018-02-15T02:05:55.410Z,1.07
2018-02-15T02:06:55.337Z,1.07
2018-02-15T02:07:55.346Z,1.06
2018-02-15T02:08:55.344Z,1.07
2018-02-15T02:09:55.364Z,1.06
2018-02-15T02:10:55.399Z,1.07
2018-02-15T02:11:55.403Z,1.08
2018-02-15T02:12:55.377Z,1.08
2018-02-15T02:13:55.394Z,1.05
2018-02-15T02:14:55.369Z,1.07
2018-02-15T02:15:55.410Z,1.07
2018-02-15T02:16:55.388Z,1.04
2018-02-15T02:17:55.375Z,1.01
2018-02-15T02:18:55.381Z,1.03
2018-02-15T02:19:55.407Z,1.02
2018-02-15T02:20:55.413Z,1
2018-02-15T02:21:55.412Z,0.99
2018-02-15T02:22:55.402Z,0.97
2018-02-15T02:23:55.403Z,1.01
2018-02-15T02:24:55.416Z,0.99
2018-02-15T02:25:55.407Z,1.03
2018-02-15T02:26:55.431Z,1
2018-02-15T02:27:55.406Z,1.03
2018-02-15T02:28:55.402Z,1.04
2018-02-15T02:29:55.421Z,1.07
2018-02-15T02:30:55.567Z,1.04
2018-02-15T02:31:55.445Z,1.08
2018-02-15T02:32:55.416Z,1.07
2018-02-15T02:33:55.470Z,1.08
2018-02-15T02:34:55.450Z,1.1
2018-02-15T02:35:55.473Z,1.08
2018-02-15T02:36:55.464Z,1.09
2018-02-15T02:37:55.490Z,1.08
2018-02-15T02:38:55.446Z,1.07
2018-02-15T02:39:55.457Z,1.07
2018-02-15T02:40:55.491Z,1.09
2018-02-15T02:41:55.483Z,1.08
2018-02-15T02:42:55.490Z,1.12
2018-02-15T02:43:55.478Z,1.12
2018-02-15T02:44:55.470Z,1.09
2018-02-15T02:45:55.479Z,1.1
2018-02-15T02:46:55.514Z,1.11
2018-02-15T02:47:55.524Z,1.1
2018-02-15T02:48:55.513Z,1.1
2018-02-15T02:49:55.499Z,1.12
2018-02-15T02:50:55.493Z,1.09
2018-02-15T02:51:55.504Z,1.1
2018-02-15T02:52:55.535Z,1.1
2018-02-15T02:53:55.524Z,1.12
2018-02-15T02:54:55.518Z,1.09
2018-02-15T02:55:55.506Z,1.13
2018-02-15T02:56:55.537Z,1.11
2018-02-15T02:57:55.541Z,1.13
2018-02-15T02:58:55.561Z,1.12
2018-02-15T02:59:55.536Z,1.11
2018-02-15T03:00:55.546Z,1.13
2018-02-15T03:01:55.564Z,1.13
2018-02-15T03:02:55.566Z,1.13
2018-02-15T03:03:55.571Z,1.14
2018-02-15T03:04:55.532Z,1.13
2018-02-15T03:05:55.558Z,1.14
2018-02-15T03:06:55.553Z,1.15
2018-02-15T03:07:55.547Z,1.16
2018-02-15T03:08:55.548Z,1.15
2018-02-15T03:09:55.565Z,1.13
2018-02-15T03:10:55.560Z,1.14
2018-02-15T03:11:55.527Z,1.14
2018-02-15T03:12:55.562Z,1.15
2018-02-15T03:13:55.544Z,1.16
2018-02-15T03:14:55.592Z,1.18
2018-02-15T03:15:55.567Z,1.17
2018-02-15T03:16:55.550Z,1.19
2018-02-15T03:17:56.476Z,1.2
2018-02-15T03:18:55.568Z,1.21
2018-02-15T03:19:55.572Z,1.19
2018-02-15T03:20:55.579Z,1.19
2018-02-15T03:21:55.562Z,1.17
2018-02-15T03:22:55.563Z,1.17
2018-02-15T03:23:55.706Z,1.19
2018-02-15T03:24:55.578Z,1.16
2018-02-15T03:25:55.578Z,1.2
2018-02-15T03:26:55.601Z,1.18
2018-02-15T03:27:55.599Z,1.19
2018-02-15T03:28:55.635Z,1.19
2018-02-15T03:29:55.636Z,1.21
2018-02-15T03:30:55.630Z,1.2
2018-02-15T03:31:55.630Z,1.21
2018-02-15T03:32:55.640Z,1.21
2018-02-15T03:33:55.669Z,1.22
2018-02-15T03:34:55.648Z,1.23
2018-02-15T03:35:55.656Z,1.23
2018-02-15T03:36:55.636Z,1.25
2018-02-15T03:37:55.669Z,1.25
2018-02-15T03:38:55.676Z,1.25
2018-02-15T03:39:55.678Z,1.25
2018-02-15T03:40:55.659Z,1.25
2018-02-15T03:41:55.641Z,1.26
2018-02-15T03:42:55.654Z,1.26
2018-02-15T03:43:55.657Z,1.26
2018-02-15T03:44:55.684Z,1.22
2018-02-15T03:45:55.695Z,1.22
2018-02-15T03:46:55.677Z,1.23
2018-02-15T03:47:55.659Z,1.21
2018-02-15T03:48:55.665Z,1.21
2018-02-15T03:49:55.772Z,1.22
2018-02-15T03:50:55.716Z,1.21
2018-02-15T03:51:55.690Z,1.22
2018-02-15T03:52:55.698Z,1.25
2018-02-15T03:53:55.701Z,1.22
2018-02-15T03:54:55.758Z,1.2
2018-02-15T03:55:55.719Z,1.2
2018-02-15T03:56:55.721Z,1.21
2018-02-15T03:57:55.698Z,1.21
2018-02-15T03:58:55.713Z,1.2
2018-02-15T03:59:55.747Z,1.2
2018-02-15T04:00:55.751Z,1.2
2018-02-15T04:01:55.739Z,1.19
2018-02-15T04:02:55.743Z,1.2
2018-02-15T04:03:55.739Z,1.18
2018-02-15T04:04:55.844Z,1.21
2018-02-15T04:05:55.729Z,1.22
2018-02-15T04:06:55.859Z,1.21
2018-02-15T04:07:55.742Z,1.25
2018-02-15T04:08:55.746Z,1.22
2018-02-15T04:09:55.752Z,1.22
2018-02-15T04:10:55.765Z,1.21
2018-02-15T04:11:55.761Z,1.23
2018-02-15T04:12:55.753Z,1.24
2018-02-15T04:13:55.830Z,1.24
2018-02-15T04:14:55.779Z,1.28
2018-02-15T04:15:55.787Z,1.28
2018-02-15T04:16:55.824Z,1.27
2018-02-15T04:17:55.768Z,1.27
2018-02-15T04:18:55.795Z,1.28
2018-02-15T04:19:55.784Z,1.28
2018-02-15T04:20:55.777Z,1.29
2018-02-15T04:21:55.772Z,1.29
2018-02-15T04:22:55.766Z,1.31
2018-02-15T04:23:55.774Z,1.31
2018-02-15T04:24:55.783Z,1.32
2018-02-15T04:25:56.133Z,1.3
2018-02-15T04:26:55.806Z,1.32
2018-02-15T04:27:55.779Z,1.32
2018-02-15T04:28:55.788Z,1.33
2018-02-15T04:29:55.790Z,1.32
2018-02-15T04:30:55.813Z,1.3
2018-02-15T04:31:56.729Z,1.28
2018-02-15T04:32:55.802Z,1.28
2018-02-15T04:33:58.842Z,1.28
2018-02-15T04:34:55.823Z,1.28
2018-02-15T04:35:55.799Z,1.28
2018-02-15T04:36:55.843Z,1.3
2018-02-15T04:37:55.837Z,1.3
2018-02-15T04:38:55.814Z,1.3
2018-02-15T04:39:55.817Z,1.31
2018-02-15T04:40:55.835Z,1.29
2018-02-15T04:41:55.833Z,1.28
2018-02-15T04:42:55.844Z,1.32
2018-02-15T04:43:55.861Z,1.29
2018-02-15T04:44:55.833Z,1.32
2018-02-15T04:45:55.838Z,1.33
2018-02-15T04:46:55.866Z,1.34
2018-02-15T04:47:55.861Z,1.35
2018-02-15T04:48:55.888Z,1.37
2018-02-15T04:49:55.895Z,1.35
2018-02-15T04:50:55.860Z,1.35
2018-02-15T04:51:55.885Z,1.35
2018-02-15T04:52:55.874Z,1.35
2018-02-15T04:53:55.870Z,1.37
2018-02-15T04:54:55.903Z,1.37
2018-02-15T04:55:55.879Z,1.35
2018-02-15T04:56:55.892Z,1.37
2018-02-15T04:57:55.898Z,1.36
2018-02-15T04:58:55.884Z,1.34
2018-02-15T04:59:55.908Z,1.34
2018-02-15T05:00:55.919Z,1.35
2018-02-15T05:01:55.899Z,1.37
2018-02-15T05:02:55.903Z,1.38
2018-02-15T05:03:55.898Z,1.39
2018-02-15T05:04:55.885Z,1.37
2018-02-15T05:05:55.933Z,1.39
2018-02-15T05:06:55.927Z,1.37
2018-02-15T05:07:55.907Z,1.39
2018-02-15T05:08:55.913Z,1.4
2018-02-15T05:09:55.926Z,1.4
2018-02-15T05:10:55.941Z,1.4
2018-02-15T05:11:55.913Z,1.4
2018-02-15T05:12:55.959Z,1.4
2018-02-15T05:13:55.925Z,1.4
2018-02-15T05:14:55.929Z,1.4
2018-02-15T05:15:55.943Z,1.4
2018-02-15T05:16:56.290Z,1.41
2018-02-15T05:17:55.957Z,1.4
2018-02-15T05:18:55.942Z,1.43
2018-02-15T05:19:55.943Z,1.4
2018-02-15T05:20:55.978Z,1.4
2018-02-15T05:21:55.988Z,1.41
2018-02-15T05:22:55.942Z,1.44
2018-02-15T05:23:55.938Z,1.42
2018-02-15T05:24:55.968Z,1.45
2018-02-15T05:25:56.299Z,1.45
2018-02-15T05:26:55.970Z,1.44
2018-02-15T05:27:55.933Z,1.41
2018-02-15T05:28:55.940Z,1.44
2018-02-15T05:29:55.946Z,1.44
2018-02-15T05:30:55.986Z,1.43
2018-02-15T05:31:55.995Z,1.41
2018-02-15T05:32:55.980Z,1.44
2018-02-15T05:33:55.961Z,1.42
2018-02-15T05:34:55.974Z,1.42
2018-02-15T05:35:55.980Z,1.45
2018-02-15T05:36:55.983Z,1.45
2018-02-15T05:37:56.032Z,1.45
2018-02-15T05:38:56.098Z,1.45
2018-02-15T05:39:55.988Z,1.45
2018-02-15T05:40:56.267Z,1.44
2018-02-15T05:41:56.014Z,1.45
2018-02-15T05:42:56.015Z,1.42
2018-02-15T05:43:56.017Z,1.43
2018-02-15T05:44:55.991Z,1.45
2018-02-15T05:45:56.000Z,1.42
2018-02-15T05:46:55.991Z,1.43
2018-02-15T05:47:56.000Z,1.42
2018-02-15T05:48:56.052Z,1.43
2018-02-15T05:49:56.016Z,1.41
2018-02-15T05:50:56.028Z,1.42
2018-02-15T05:51:55.994Z,1.44
2018-02-15T05:52:56.026Z,1.43
2018-02-15T05:53:56.320Z,1.42
2018-02-15T05:54:56.012Z,1.45
2018-02-15T05:55:56.010Z,1.45
2018-02-15T05:56:56.015Z,1.45
2018-02-15T05:57:56.030Z,1.45
2018-02-15T05:58:56.030Z,1.45
2018-02-15T05:59:56.128Z,1.46
2018-02-15T06:00:56.111Z,1.46
2018-02-15T06:01:56.122Z,1.47
2018-02-15T06:02:56.121Z,1.45
2018-02-15T06:03:56.120Z,1.46
2018-02-15T06:04:56.136Z,1.45
2018-02-15T06:05:56.175Z,1.47
2018-02-15T06:06:56.071Z,1.46
2018-02-15T06:07:56.057Z,1.45
2018-02-15T06:08:56.106Z,1.46
2018-02-15T06:09:56.073Z,1.46
2018-02-15T06:10:56.077Z,1.47
2018-02-15T06:11:56.108Z,1.48
2018-02-15T06:12:56.083Z,1.49
2018-02-15T06:13:56.120Z,1.51
2018-02-15T06:14:56.092Z,1.5
2018-02-15T06:15:56.106Z,1.48
2018-02-15T06:16:56.087Z,1.5
2018-02-15T06:17:56.092Z,1.48
2018-02-15T06:18:56.088Z,1.49
2018-02-15T06:19:56.079Z,1.49
2018-02-15T06:20:56.160Z,1.49
2018-02-15T06:21:56.120Z,1.49
2018-02-15T06:22:56.102Z,1.5
2018-02-15T06:23:56.127Z,1.49
2018-02-15T06:24:56.115Z,1.5
2018-02-15T06:25:56.145Z,1.49
2018-02-15T06:26:56.127Z,1.48
2018-02-15T06:27:56.137Z,1.48
2018-02-15T06:28:56.124Z,1.5
2018-02-15T06:29:56.129Z,1.47
2018-02-15T06:30:56.138Z,1.46
2018-02-15T06:31:56.137Z,1.46
2018-02-15T06:32:56.276Z,1.46
2018-02-15T06:33:56.149Z,1.46
2018-02-15T06:34:56.140Z,1.47
2018-02-15T06:35:56.160Z,1.46
2018-02-15T06:36:56.331Z,1.47
2018-02-15T06:37:56.268Z,1.48
2018-02-15T06:38:56.219Z,1.46
2018-02-15T06:39:56.144Z,1.46
2018-02-15T06:40:56.173Z,1.48
2018-02-15T06:41:56.180Z,1.48
2018-02-15T06:42:56.192Z,1.48
2018-02-15T06:43:56.201Z,1.5
2018-02-15T06:44:56.186Z,1.49
2018-02-15T06:45:56.180Z,1.51
2018-02-15T06:46:56.188Z,1.51
2018-02-15T06:47:56.189Z,1.52
2018-02-15T06:48:56.208Z,1.52
2018-02-15T06:49:56.212Z,1.52
2018-02-15T06:50:56.193Z,1.52
2018-02-15T06:51:56.192Z,1.53
2018-02-15T06:52:56.178Z,1.54
2018-02-15T06:53:56.182Z,1.52
2018-02-15T06:54:56.186Z,1.53
2018-02-15T06:55:56.205Z,1.52
2018-02-15T06:56:56.223Z,1.55
2018-02-15T06:57:56.172Z,1.53
2018-02-15T06:58:56.248Z,1.55
2018-02-15T06:59:56.198Z,1.56
2018-02-15T07:00:56.202Z,1.58
2018-02-15T07:01:56.221Z,1.58
2018-02-15T07:02:56.213Z,1.57
2018-02-15T07:03:56.277Z,1.58
2018-02-15T07:04:56.217Z,1.59
2018-02-15T07:05:56.304Z,1.58
2018-02-15T07:06:56.314Z,1.59
2018-02-15T07:07:56.224Z,1.59
2018-02-15T07:08:56.286Z,1.58
2018-02-15T07:09:57.009Z,1.57
2018-02-15T07:10:56.253Z,1.57
2018-02-15T07:11:56.597Z,1.57
2018-02-15T07:12:56.272Z,1.59
2018-02-15T07:13:56.265Z,1.58
2018-02-15T07:14:56.281Z,1.58
2018-02-15T07:15:56.261Z,1.58
2018-02-15T07:16:56.263Z,1.58
2018-02-15T07:17:56.287Z,1.59
2018-02-15T07:18:56.272Z,1.59
2018-02-15T07:19:56.549Z,1.58
2018-02-15T07:20:56.318Z,1.59
2018-02-15T07:21:56.290Z,1.59
2018-02-15T07:22:56.298Z,1.6
2018-02-15T07:23:56.311Z,1.61
2018-02-15T07:24:56.342Z,1.63
2018-02-15T07:25:56.312Z,1.6
2018-02-15T07:26:56.569Z,1.6
2018-02-15T07:27:56.316Z,1.58
2018-02-15T07:28:56.328Z,1.59
2018-02-15T07:29:56.332Z,1.59
2018-02-15T07:30:56.332Z,1.58
2018-02-15T07:31:56.349Z,1.59
2018-02-15T07:32:56.347Z,1.59
2018-02-15T07:33:56.357Z,1.58
2018-02-15T07:34:56.349Z,1.57
2018-02-15T07:35:56.348Z,1.58
2018-02-15T07:36:56.348Z,1.57
2018-02-15T07:37:56.368Z,1.54
2018-02-15T07:38:56.376Z,1.56
2018-02-15T07:39:56.468Z,1.55
2018-02-15T07:40:56.354Z,1.5
2018-02-15T07:41:56.385Z,1.48
2018-02-15T07:42:56.350Z,1.47
2018-02-15T07:43:56.376Z,1.44
2018-02-15T07:44:57.268Z,1.4
2018-02-15T07:45:56.409Z,1.4
2018-02-15T07:46:56.385Z,1.39
2018-02-15T07:47:56.389Z,1.34
2018-02-15T07:48:56.552Z,1.32
2018-02-15T07:49:56.467Z,1.28
2018-02-15T07:50:56.431Z,1.28
2018-02-15T07:51:56.367Z,1.22
2018-02-15T07:52:56.402Z,1.22
2018-02-15T07:53:56.412Z,1.17
2018-02-15T07:54:56.684Z,1.17
2018-02-15T07:55:56.408Z,1.16
2018-02-15T07:56:56.440Z,1.16
2018-02-15T07:57:56.399Z,1.16
2018-02-15T07:58:56.406Z,1.12
2018-02-15T07:59:56.432Z,1.1
2018-02-15T08:00:56.440Z,1.08
2018-02-15T08:01:56.481Z,1.11
2018-02-15T08:02:56.480Z,1.1
2018-02-15T08:03:56.422Z,1.06
2018-02-15T08:04:56.445Z,1.07
2018-02-15T08:05:56.438Z,1.05
2018-02-15T08:06:56.418Z,1
2018-02-15T08:07:56.419Z,1.01
2018-02-15T08:08:56.442Z,1.01
2018-02-15T08:09:56.430Z,0.94
2018-02-15T08:10:56.412Z,0.98
2018-02-15T08:11:56.439Z,0.98
2018-02-15T08:12:56.422Z,0.92
2018-02-15T08:13:56.439Z,0.93
2018-02-15T08:14:56.448Z,0.93
2018-02-15T08:15:56.442Z,0.91
2018-02-15T08:16:56.455Z,0.87
2018-02-15T08:17:56.432Z,0.86
2018-02-15T08:18:56.437Z,0.87
2018-02-15T08:19:56.477Z,0.88
2018-02-15T08:20:56.449Z,0.87
2018-02-15T08:21:56.468Z,0.85
2018-02-15T08:22:56.474Z,0.85
2018-02-15T08:23:56.461Z,0.86
2018-02-15T08:24:56.471Z,0.87
2018-02-15T08:25:56.467Z,0.83
2018-02-15T08:26:56.479Z,0.84
2018-02-15T08:27:56.458Z,0.81
2018-02-15T08:28:56.496Z,0.82
2018-02-15T08:29:56.489Z,0.81
2018-02-15T08:30:56.494Z,0.78
2018-02-15T08:31:56.506Z,0.78
2018-02-15T08:32:56.490Z,0.79
2018-02-15T08:33:56.503Z,0.81
2018-02-15T08:34:56.525Z,0.79
2018-02-15T08:35:56.510Z,0.79
2018-02-15T08:36:56.506Z,0.8
2018-02-15T08:37:56.515Z,0.81
2018-02-15T08:38:56.523Z,0.82
2018-02-15T08:39:56.555Z,0.85
2018-02-15T08:40:56.532Z,0.81
2018-02-15T08:41:56.524Z,0.8
2018-02-15T08:42:56.575Z,0.81
2018-02-15T08:43:56.525Z,0.8
2018-02-15T08:44:56.581Z,0.79
2018-02-15T08:45:56.542Z,0.8
2018-02-15T08:46:56.513Z,0.81
2018-02-15T08:47:56.546Z,0.78
2018-02-15T08:48:56.564Z,0.8
2018-02-15T08:49:56.624Z,0.79
2018-02-15T08:50:56.557Z,0.8
2018-02-15T08:51:56.567Z,0.79
2018-02-15T08:52:56.527Z,0.78
2018-02-15T08:53:56.550Z,0.81
2018-02-15T08:54:25.794Z,0.82
2018-02-15T08:55:25.837Z,0.83
2018-02-15T08:56:25.814Z,0.82
2018-02-15T08:57:25.809Z,0.84
2018-02-15T08:58:25.807Z,0.84
2018-02-15T08:59:25.819Z,0.79
2018-02-15T09:00:25.845Z,0.83
2018-02-15T09:01:25.803Z,0.81
2018-02-15T09:02:25.835Z,0.78
2018-02-15T09:03:25.819Z,0.8
2018-02-15T09:04:25.878Z,0.83
2018-02-15T09:05:25.834Z,0.8
2018-02-15T09:06:25.840Z,0.81
2018-02-15T09:07:25.847Z,0.8
2018-02-15T09:08:25.831Z,0.78
2018-02-15T09:09:25.834Z,0.8
2018-02-15T09:10:25.896Z,0.81
2018-02-15T09:11:25.846Z,0.79
2018-02-15T09:12:25.853Z,0.77
2018-02-15T09:13:25.862Z,0.8
2018-02-15T09:14:25.873Z,0.84
2018-02-15T09:15:25.875Z,0.85
2018-02-15T09:16:25.863Z,0.86
2018-02-15T09:17:25.914Z,0.87
2018-02-15T09:18:25.867Z,0.89
2018-02-15T09:19:25.883Z,0.86
2018-02-15T09:20:25.873Z,0.87
2018-02-15T09:21:25.888Z,0.89
2018-02-15T09:22:26.052Z,0.86
2018-02-15T09:23:25.916Z,0.88
2018-02-15T09:24:25.891Z,0.87
2018-02-15T09:25:25.898Z,0.9
2018-02-15T09:26:25.931Z,0.88
2018-02-15T09:27:25.934Z,0.9
2018-02-15T09:28:25.912Z,0.89
2018-02-15T09:29:25.899Z,0.91
2018-02-15T09:30:25.935Z,0.91
2018-02-15T09:31:25.902Z,0.91
2018-02-15T09:32:26.051Z,0.88
2018-02-15T09:33:25.903Z,0.9
2018-02-15T09:34:25.922Z,0.92
2018-02-15T09:35:25.903Z,0.93
2018-02-15T09:36:25.921Z,0.92
2018-02-15T09:37:25.966Z,0.87
2018-02-15T09:38:25.947Z,0.9
2018-02-15T09:39:25.972Z,0.87
2018-02-15T09:40:25.918Z,0.86
2018-02-15T09:41:25.931Z,0.88
2018-02-15T09:42:25.949Z,0.87
2018-02-15T09:43:25.939Z,0.87
2018-02-15T09:44:25.942Z,0.85
2018-02-15T09:45:25.927Z,0.86
2018-02-15T09:46:25.922Z,0.87
2018-02-15T09:47:26.086Z,0.88
2018-02-15T09:48:25.937Z,0.92
2018-02-15T09:49:26.005Z,0.93
2018-02-15T09:50:25.974Z,0.93
2018-02-15T09:51:26.016Z,0.94
2018-02-15T09:52:26.252Z,0.95
2018-02-15T09:53:25.963Z,0.96
2018-02-15T09:54:26.142Z,0.94
2018-02-15T09:55:25.943Z,0.94
2018-02-15T09:56:25.968Z,0.96
2018-02-15T09:57:25.962Z,0.97
2018-02-15T09:58:25.963Z,0.99
2018-02-15T09:59:25.967Z,0.97
2018-02-15T10:00:25.944Z,0.97
2018-02-15T10:01:26.004Z,0.98
2018-02-15T10:02:25.955Z,0.99
2018-02-15T10:03:25.969Z,0.99
2018-02-15T10:04:26.029Z,0.99
2018-02-15T10:05:25.980Z,1.02
2018-02-15T10:06:25.986Z,1.04
2018-02-15T10:07:25.993Z,1.06
2018-02-15T10:08:25.996Z,1.05
2018-02-15T10:09:25.984Z,1.06
2018-02-15T10:10:26.335Z,1.04
2018-02-15T10:11:25.986Z,1.06
2018-02-15T10:12:25.998Z,1.1
2018-02-15T10:13:26.032Z,1.12
2018-02-15T10:14:25.988Z,1.12
2018-02-15T10:15:25.992Z,1.12
2018-02-15T10:16:26.035Z,1.15
2018-02-15T10:17:26.005Z,1.16
2018-02-15T10:18:26.010Z,1.18
2018-02-15T10:19:26.004Z,1.18
2018-02-15T10:20:26.007Z,1.2
2018-02-15T10:21:26.043Z,1.24
2018-02-15T10:22:26.041Z,1.3
2018-02-15T10:23:25.997Z,1.32
2018-02-15T10:24:26.057Z,1.34
2018-02-15T10:25:26.019Z,1.36
2018-02-15T10:26:26.022Z,1.37
2018-02-15T10:27:26.021Z,1.39
2018-02-15T10:28:26.040Z,1.36
2018-02-15T10:29:26.065Z,1.39
2018-02-15T10:30:26.026Z,1.4
2018-02-15T10:31:26.030Z,1.45
2018-02-15T10:32:26.038Z,1.47
2018-02-15T10:33:26.057Z,1.52
2018-02-15T10:34:26.070Z,1.52
2018-02-15T10:35:26.059Z,1.52
2018-02-15T10:36:26.057Z,1.53
2018-02-15T10:37:26.046Z,1.56
2018-02-15T10:38:26.050Z,1.59
2018-02-15T10:39:26.077Z,1.59
2018-02-15T10:40:26.070Z,1.58
2018-02-15T10:41:26.086Z,1.58
2018-02-15T10:42:26.072Z,1.55
2018-02-15T10:43:26.086Z,1.61
2018-02-15T10:44:26.104Z,1.61
2018-02-15T10:45:26.091Z,1.64
2018-02-15T10:46:26.092Z,1.65
2018-02-15T10:47:26.081Z,1.64
2018-02-15T10:48:26.071Z,1.64
2018-02-15T10:49:26.207Z,1.62
2018-02-15T10:50:26.099Z,1.59
2018-02-15T10:51:26.179Z,1.57
2018-02-15T10:52:26.114Z,1.52
2018-02-15T10:53:26.116Z,1.56
2018-02-15T10:54:26.152Z,1.59
2018-02-15T10:55:26.109Z,1.54
2018-02-15T10:56:26.470Z,1.56
2018-02-15T10:57:26.118Z,1.57
2018-02-15T10:58:26.115Z,1.6
2018-02-15T10:59:26.144Z,1.58
2018-02-15T11:00:26.110Z,1.56
2018-02-15T11:01:26.210Z,1.55
2018-02-15T11:02:26.124Z,1.58
2018-02-15T11:03:26.133Z,1.55
2018-02-15T11:04:26.159Z,1.54
2018-02-15T11:05:26.143Z,1.55
2018-02-15T11:06:26.132Z,1.56
2018-02-15T11:07:26.128Z,1.59
2018-02-15T11:08:26.151Z,1.6
2018-02-15T11:09:26.172Z,1.59
2018-02-15T11:10:26.150Z,1.58
2018-02-15T11:11:26.160Z,1.63
2018-02-15T11:12:26.138Z,1.6
2018-02-15T11:13:26.152Z,1.6
2018-02-15T11:14:26.183Z,1.62
2018-02-15T11:15:26.165Z,1.65
2018-02-15T11:16:26.169Z,1.69
2018-02-15T11:17:26.180Z,1.66
2018-02-15T11:18:26.185Z,1.66
2018-02-15T11:19:26.174Z,1.69
2018-02-15T11:20:26.176Z,1.71
2018-02-15T11:21:26.182Z,1.74
2018-02-15T11:22:27.052Z,1.75
2018-02-15T11:23:27.243Z,1.78
2018-02-15T11:24:26.457Z,1.8
2018-02-15T11:25:26.197Z,1.86
2018-02-15T11:26:27.075Z,1.83
2018-02-15T11:27:26.212Z,1.81
2018-02-15T11:28:27.968Z,1.85
2018-02-15T11:29:26.764Z,1.85
2018-02-15T11:30:26.213Z,1.9
2018-02-15T11:31:27.102Z,1.89
2018-02-15T11:32:26.228Z,1.88
2018-02-15T11:33:26.250Z,1.88
2018-02-15T11:34:26.233Z,1.89
2018-02-15T11:35:26.242Z,1.9
2018-02-15T11:36:26.245Z,1.91
2018-02-15T11:37:27.282Z,1.91
2018-02-15T11:38:26.270Z,1.91
2018-02-15T11:39:26.248Z,1.91
2018-02-15T11:40:28.310Z,1.9
2018-02-15T11:41:26.246Z,1.9
2018-02-15T11:42:26.268Z,1.93
2018-02-15T11:43:28.228Z,1.91
2018-02-15T11:44:26.264Z,1.92
2018-02-15T11:45:26.273Z,1.95
2018-02-15T11:46:26.274Z,1.91
2018-02-15T11:47:26.303Z,1.91
2018-02-15T11:48:26.276Z,1.9
2018-02-15T11:49:26.289Z,1.91
2018-02-15T11:50:26.279Z,1.91
2018-02-15T11:51:26.298Z,1.92
2018-02-15T11:52:26.277Z,1.93
2018-02-15T11:53:26.347Z,1.92
2018-02-15T11:54:26.303Z,1.95
2018-02-15T11:55:26.299Z,1.91
2018-02-15T11:56:26.465Z,1.91
2018-02-15T11:57:26.314Z,1.91
2018-02-15T11:58:26.321Z,1.91
2018-02-15T11:59:26.328Z,1.92
2018-02-15T12:00:26.363Z,1.96
2018-02-15T12:01:26.312Z,1.94
2018-02-15T12:02:26.377Z,1.97
2018-02-15T12:03:26.363Z,1.96
2018-02-15T12:04:26.337Z,1.98
2018-02-15T12:05:26.381Z,1.97
2018-02-15T12:06:26.325Z,1.97
2018-02-15T12:07:26.339Z,1.96
2018-02-15T12:08:26.333Z,1.97
2018-02-15T12:09:26.346Z,2
2018-02-15T12:10:26.352Z,1.98
2018-02-15T12:11:26.346Z,2.01
2018-02-15T12:12:26.368Z,2.02
2018-02-15T12:13:26.376Z,2.03
2018-02-15T12:14:26.355Z,2.04
2018-02-15T12:15:26.360Z,2.08
2018-02-15T12:16:26.367Z,2.06
2018-02-15T12:17:26.368Z,2.07
2018-02-15T12:18:26.634Z,2.09
2018-02-15T12:19:26.526Z,2.11
2018-02-15T12:20:26.546Z,2.13
2018-02-15T12:21:26.375Z,2.13
2018-02-15T12:22:26.407Z,2.11
2018-02-15T12:23:26.569Z,2.15
2018-02-15T12:24:26.422Z,2.15
2018-02-15T12:25:26.423Z,2.14
2018-02-15T12:26:26.537Z,2.15
2018-02-15T12:27:26.440Z,2.15
2018-02-15T12:28:26.449Z,2.14
2018-02-15T12:29:26.464Z,2.11
2018-02-15T12:30:26.460Z,2.14
2018-02-15T12:31:26.443Z,2.15
2018-02-15T12:32:26.496Z,2.16
2018-02-15T12:33:26.457Z,2.16
2018-02-15T12:34:26.515Z,2.18
2018-02-15T12:35:26.493Z,2.21
2018-02-15T12:36:26.427Z,2.21
2018-02-15T12:37:26.479Z,2.21
2018-02-15T12:38:26.435Z,2.23
2018-02-15T12:39:26.524Z,2.27
2018-02-15T12:40:26.693Z,2.25
2018-02-15T12:41:26.538Z,2.25
2018-02-15T12:42:26.778Z,2.24
2018-02-15T12:43:26.651Z,2.29
2018-02-15T12:44:26.553Z,2.28
2018-02-15T12:45:26.564Z,2.27
2018-02-15T12:46:26.556Z,2.29
2018-02-15T12:47:26.613Z,2.28
2018-02-15T12:48:26.585Z,2.28
2018-02-15T12:49:26.490Z,2.28
2018-02-15T12:50:26.494Z,2.29
2018-02-15T12:51:26.504Z,2.29
2018-02-15T12:52:26.486Z,2.3
2018-02-15T12:53:26.490Z,2.3
2018-02-15T12:54:26.811Z,2.29
2018-02-15T12:55:26.480Z,2.32
2018-02-15T12:56:26.484Z,2.35
2018-02-15T12:57:26.488Z,2.33
2018-02-15T12:58:26.527Z,2.37
2018-02-15T12:59:26.478Z,2.39
2018-02-15T13:00:26.492Z,2.4
2018-02-15T13:01:26.548Z,2.4
2018-02-15T13:02:26.525Z,2.36
2018-02-15T13:03:26.511Z,2.39
2018-02-15T13:04:26.508Z,2.36
2018-02-15T13:05:26.505Z,2.4
2018-02-15T13:06:26.501Z,2.37
2018-02-15T13:07:31.532Z,2.37
2018-02-15T13:08:26.519Z,2.37
2018-02-15T13:09:26.535Z,2.4
2018-02-15T13:10:26.534Z,2.39
2018-02-15T13:11:26.525Z,2.4
2018-02-15T13:12:26.500Z,2.41
2018-02-15T13:13:26.550Z,2.41
2018-02-15T13:14:26.546Z,2.42
2018-02-15T13:15:26.516Z,2.43
2018-02-15T13:16:26.640Z,2.46
2018-02-15T13:17:26.532Z,2.44
2018-02-15T13:18:26.590Z,2.47
2018-02-15T13:19:26.521Z,2.48
2018-02-15T13:20:26.549Z,2.5
2018-02-15T13:21:26.558Z,2.52
2018-02-15T13:22:26.540Z,2.52